sensor_id;sensor_type;location;lat;lon;timestamp;P1;durP1;ratioP1;P2;durP2;ratioP2
79149;SDS011;68563;45.644;13.782;2023-12-29T00:01:12;74.15;;;45.85;;
79149;SDS011;68563;45.644;13.782;2023-12-29T00:03:38;75.53;;;46.25;;
79149;SDS011;68563;45.644;13.782;2023-12-29T00:06:03;77.90;;;46.40;;
79149;SDS011;68563;45.644;13.782;2023-12-29T00:08:29;86.55;;;49.38;;
79149;SDS011;68563;45.644;13.782;2023-12-29T00:10:56;81.35;;;48.05;;
79149;SDS011;68563;45.644;13.782;2023-12-29T00:13:21;77.47;;;48.33;;
79149;SDS011;68563;45.644;13.782;2023-12-29T00:15:51;84.70;;;48.92;;
79149;SDS011;68563;45.644;13.782;2023-12-29T00:18:17;76.47;;;47.53;;
79149;SDS011;68563;45.644;13.782;2023-12-29T00:20:43;82.82;;;47.80;;
79149;SDS011;68563;45.644;13.782;2023-12-29T00:23:08;78.05;;;46.67;;
79149;SDS011;68563;45.644;13.782;2023-12-29T00:25:37;78.95;;;46.72;;
79149;SDS011;68563;45.644;13.782;2023-12-29T00:28:03;80.82;;;47.83;;
79149;SDS011;68563;45.644;13.782;2023-12-29T00:30:29;82.55;;;47.05;;
79149;SDS011;68563;45.644;13.782;2023-12-29T00:32:55;84.57;;;48.42;;
79149;SDS011;68563;45.644;13.782;2023-12-29T00:35:20;83.97;;;49.47;;
79149;SDS011;68563;45.644;13.782;2023-12-29T00:37:46;77.85;;;42.28;;
79149;SDS011;68563;45.644;13.782;2023-12-29T00:40:11;69.78;;;41.33;;
79149;SDS011;68563;45.644;13.782;2023-12-29T00:42:37;66.70;;;42.20;;
79149;SDS011;68563;45.644;13.782;2023-12-29T00:45:03;66.85;;;38.72;;
79149;SDS011;68563;45.644;13.782;2023-12-29T00:47:28;63.25;;;34.78;;
79149;SDS011;68563;45.644;13.782;2023-12-29T00:49:54;58.45;;;36.30;;
79149;SDS011;68563;45.644;13.782;2023-12-29T00:52:19;56.40;;;34.45;;
79149;SDS011;68563;45.644;13.782;2023-12-29T00:54:45;55.40;;;35.72;;
79149;SDS011;68563;45.644;13.782;2023-12-29T00:57:10;57.83;;;34.60;;
79149;SDS011;68563;45.644;13.782;2023-12-29T00:59:37;58.42;;;36.40;;
79149;SDS011;68563;45.644;13.782;2023-12-29T01:02:04;61.13;;;37.50;;
79149;SDS011;68563;45.644;13.782;2023-12-29T01:04:30;59.92;;;36.80;;
79149;SDS011;68563;45.644;13.782;2023-12-29T01:06:56;59.72;;;35.25;;
79149;SDS011;68563;45.644;13.782;2023-12-29T01:09:21;59.03;;;36.00;;
79149;SDS011;68563;45.644;13.782;2023-12-29T01:11:46;59.38;;;37.50;;
79149;SDS011;68563;45.644;13.782;2023-12-29T01:14:12;60.83;;;37.17;;
79149;SDS011;68563;45.644;13.782;2023-12-29T01:16:38;59.10;;;36.92;;
79149;SDS011;68563;45.644;13.782;2023-12-29T01:19:04;62.85;;;37.10;;
79149;SDS011;68563;45.644;13.782;2023-12-29T01:21:30;62.20;;;36.90;;
79149;SDS011;68563;45.644;13.782;2023-12-29T01:23:59;64.80;;;37.38;;
79149;SDS011;68563;45.644;13.782;2023-12-29T01:26:29;61.47;;;36.33;;
79149;SDS011;68563;45.644;13.782;2023-12-29T01:28:54;61.25;;;37.45;;
79149;SDS011;68563;45.644;13.782;2023-12-29T01:31:20;65.32;;;37.42;;
79149;SDS011;68563;45.644;13.782;2023-12-29T01:33:45;66.40;;;39.38;;
79149;SDS011;68563;45.644;13.782;2023-12-29T01:36:16;62.78;;;38.60;;
79149;SDS011;68563;45.644;13.782;2023-12-29T01:38:42;64.82;;;37.50;;
79149;SDS011;68563;45.644;13.782;2023-12-29T01:41:08;67.72;;;39.67;;
79149;SDS011;68563;45.644;13.782;2023-12-29T01:43:33;63.28;;;40.45;;
79149;SDS011;68563;45.644;13.782;2023-12-29T01:45:59;65.47;;;41.03;;
79149;SDS011;68563;45.644;13.782;2023-12-29T01:48:24;71.63;;;40.85;;
79149;SDS011;68563;45.644;13.782;2023-12-29T01:50:50;68.63;;;40.47;;
79149;SDS011;68563;45.644;13.782;2023-12-29T01:53:16;66.15;;;40.28;;
79149;SDS011;68563;45.644;13.782;2023-12-29T01:55:41;62.25;;;38.75;;
79149;SDS011;68563;45.644;13.782;2023-12-29T01:58:07;56.58;;;35.85;;
79149;SDS011;68563;45.644;13.782;2023-12-29T02:00:33;53.83;;;34.58;;
79149;SDS011;68563;45.644;13.782;2023-12-29T02:02:59;52.42;;;34.35;;
79149;SDS011;68563;45.644;13.782;2023-12-29T02:05:24;61.95;;;34.45;;
79149;SDS011;68563;45.644;13.782;2023-12-29T02:07:54;62.00;;;34.03;;
79149;SDS011;68563;45.644;13.782;2023-12-29T02:10:19;65.63;;;39.58;;
79149;SDS011;68563;45.644;13.782;2023-12-29T02:12:46;66.88;;;38.55;;
79149;SDS011;68563;45.644;13.782;2023-12-29T02:15:13;64.93;;;37.60;;
79149;SDS011;68563;45.644;13.782;2023-12-29T02:17:46;55.42;;;32.38;;
79149;SDS011;68563;45.644;13.782;2023-12-29T02:20:16;54.15;;;32.15;;
79149;SDS011;68563;45.644;13.782;2023-12-29T02:22:42;53.90;;;33.20;;
79149;SDS011;68563;45.644;13.782;2023-12-29T02:25:07;49.25;;;31.75;;
79149;SDS011;68563;45.644;13.782;2023-12-29T02:27:38;49.67;;;29.88;;
79149;SDS011;68563;45.644;13.782;2023-12-29T02:32:47;42.88;;;27.38;;
79149;SDS011;68563;45.644;13.782;2023-12-29T02:35:14;45.47;;;28.65;;
79149;SDS011;68563;45.644;13.782;2023-12-29T02:37:43;47.53;;;29.45;;
79149;SDS011;68563;45.644;13.782;2023-12-29T02:40:09;58.03;;;35.72;;
79149;SDS011;68563;45.644;13.782;2023-12-29T02:42:36;65.85;;;40.05;;
79149;SDS011;68563;45.644;13.782;2023-12-29T02:45:01;75.40;;;44.63;;
79149;SDS011;68563;45.644;13.782;2023-12-29T02:47:27;82.68;;;48.45;;
79149;SDS011;68563;45.644;13.782;2023-12-29T02:49:53;88.63;;;51.30;;
79149;SDS011;68563;45.644;13.782;2023-12-29T02:52:19;88.10;;;52.67;;
79149;SDS011;68563;45.644;13.782;2023-12-29T02:54:45;92.78;;;53.78;;
79149;SDS011;68563;45.644;13.782;2023-12-29T02:57:10;97.18;;;54.08;;
79149;SDS011;68563;45.644;13.782;2023-12-29T02:59:35;92.63;;;53.38;;
79149;SDS011;68563;45.644;13.782;2023-12-29T03:02:02;96.07;;;54.72;;
79149;SDS011;68563;45.644;13.782;2023-12-29T03:04:27;92.07;;;54.38;;
79149;SDS011;68563;45.644;13.782;2023-12-29T03:06:53;90.07;;;53.53;;
79149;SDS011;68563;45.644;13.782;2023-12-29T03:09:18;93.38;;;55.35;;
79149;SDS011;68563;45.644;13.782;2023-12-29T03:11:43;86.00;;;48.55;;
79149;SDS011;68563;45.644;13.782;2023-12-29T03:14:09;90.10;;;51.35;;
79149;SDS011;68563;45.644;13.782;2023-12-29T03:16:34;86.18;;;50.45;;
79149;SDS011;68563;45.644;13.782;2023-12-29T03:19:00;88.60;;;50.97;;
79149;SDS011;68563;45.644;13.782;2023-12-29T03:21:25;86.70;;;50.35;;
79149;SDS011;68563;45.644;13.782;2023-12-29T03:23:50;87.85;;;50.40;;
79149;SDS011;68563;45.644;13.782;2023-12-29T03:26:16;85.03;;;49.92;;
79149;SDS011;68563;45.644;13.782;2023-12-29T03:28:41;87.95;;;50.58;;
79149;SDS011;68563;45.644;13.782;2023-12-29T03:31:07;89.25;;;49.38;;
79149;SDS011;68563;45.644;13.782;2023-12-29T03:33:32;83.80;;;50.90;;
79149;SDS011;68563;45.644;13.782;2023-12-29T03:35:57;80.55;;;49.70;;
79149;SDS011;68563;45.644;13.782;2023-12-29T03:38:24;86.97;;;51.05;;
79149;SDS011;68563;45.644;13.782;2023-12-29T03:40:49;92.57;;;52.03;;
79149;SDS011;68563;45.644;13.782;2023-12-29T03:43:14;86.55;;;50.28;;
79149;SDS011;68563;45.644;13.782;2023-12-29T03:45:40;86.28;;;50.42;;
79149;SDS011;68563;45.644;13.782;2023-12-29T03:48:05;89.28;;;49.63;;
79149;SDS011;68563;45.644;13.782;2023-12-29T03:50:31;87.30;;;50.47;;
79149;SDS011;68563;45.644;13.782;2023-12-29T03:52:56;92.22;;;52.75;;
79149;SDS011;68563;45.644;13.782;2023-12-29T03:55:22;90.93;;;51.30;;
79149;SDS011;68563;45.644;13.782;2023-12-29T03:57:47;86.88;;;49.83;;
79149;SDS011;68563;45.644;13.782;2023-12-29T04:00:13;83.25;;;46.78;;
79149;SDS011;68563;45.644;13.782;2023-12-29T04:02:39;90.18;;;50.42;;
79149;SDS011;68563;45.644;13.782;2023-12-29T04:05:06;90.40;;;49.63;;
79149;SDS011;68563;45.644;13.782;2023-12-29T04:07:33;88.32;;;48.90;;
79149;SDS011;68563;45.644;13.782;2023-12-29T04:09:58;89.32;;;51.08;;
79149;SDS011;68563;45.644;13.782;2023-12-29T04:12:24;89.80;;;51.38;;
79149;SDS011;68563;45.644;13.782;2023-12-29T04:14:49;90.22;;;49.80;;
79149;SDS011;68563;45.644;13.782;2023-12-29T04:17:15;85.88;;;50.70;;
79149;SDS011;68563;45.644;13.782;2023-12-29T04:19:40;87.53;;;49.22;;
79149;SDS011;68563;45.644;13.782;2023-12-29T04:22:06;87.22;;;51.17;;
79149;SDS011;68563;45.644;13.782;2023-12-29T04:24:32;88.38;;;50.58;;
79149;SDS011;68563;45.644;13.782;2023-12-29T04:26:58;84.45;;;48.55;;
79149;SDS011;68563;45.644;13.782;2023-12-29T04:29:23;81.63;;;47.42;;
79149;SDS011;68563;45.644;13.782;2023-12-29T04:31:49;71.53;;;44.47;;
79149;SDS011;68563;45.644;13.782;2023-12-29T04:34:14;73.55;;;43.90;;
79149;SDS011;68563;45.644;13.782;2023-12-29T04:36:40;79.55;;;44.65;;
79149;SDS011;68563;45.644;13.782;2023-12-29T04:39:05;79.15;;;45.95;;
79149;SDS011;68563;45.644;13.782;2023-12-29T04:41:34;81.97;;;46.45;;
79149;SDS011;68563;45.644;13.782;2023-12-29T04:43:59;82.78;;;46.30;;
79149;SDS011;68563;45.644;13.782;2023-12-29T04:46:25;79.47;;;46.35;;
79149;SDS011;68563;45.644;13.782;2023-12-29T04:48:50;76.35;;;45.00;;
79149;SDS011;68563;45.644;13.782;2023-12-29T04:51:16;74.90;;;44.13;;
79149;SDS011;68563;45.644;13.782;2023-12-29T04:53:41;75.43;;;44.90;;
79149;SDS011;68563;45.644;13.782;2023-12-29T04:56:06;70.55;;;38.20;;
79149;SDS011;68563;45.644;13.782;2023-12-29T04:58:32;61.67;;;35.63;;
79149;SDS011;68563;45.644;13.782;2023-12-29T05:00:57;59.20;;;34.53;;
79149;SDS011;68563;45.644;13.782;2023-12-29T05:03:22;60.40;;;34.45;;
79149;SDS011;68563;45.644;13.782;2023-12-29T05:05:48;59.20;;;35.25;;
79149;SDS011;68563;45.644;13.782;2023-12-29T05:08:13;66.82;;;35.40;;
79149;SDS011;68563;45.644;13.782;2023-12-29T05:10:39;62.95;;;33.10;;
79149;SDS011;68563;45.644;13.782;2023-12-29T05:13:04;59.00;;;36.53;;
79149;SDS011;68563;45.644;13.782;2023-12-29T05:15:29;64.70;;;35.90;;
79149;SDS011;68563;45.644;13.782;2023-12-29T05:17:55;64.85;;;37.72;;
79149;SDS011;68563;45.644;13.782;2023-12-29T05:20:20;63.15;;;36.45;;
79149;SDS011;68563;45.644;13.782;2023-12-29T05:22:45;64.18;;;36.92;;
79149;SDS011;68563;45.644;13.782;2023-12-29T05:25:11;62.72;;;37.42;;
79149;SDS011;68563;45.644;13.782;2023-12-29T05:27:36;63.08;;;35.88;;
79149;SDS011;68563;45.644;13.782;2023-12-29T05:30:02;62.85;;;35.63;;
79149;SDS011;68563;45.644;13.782;2023-12-29T05:32:28;68.90;;;40.03;;
79149;SDS011;68563;45.644;13.782;2023-12-29T05:34:53;67.15;;;39.22;;
79149;SDS011;68563;45.644;13.782;2023-12-29T05:37:18;62.40;;;38.03;;
79149;SDS011;68563;45.644;13.782;2023-12-29T05:39:44;69.70;;;41.03;;
79149;SDS011;68563;45.644;13.782;2023-12-29T05:42:09;74.90;;;41.53;;
79149;SDS011;68563;45.644;13.782;2023-12-29T05:44:38;72.55;;;43.10;;
79149;SDS011;68563;45.644;13.782;2023-12-29T05:47:06;77.88;;;44.55;;
79149;SDS011;68563;45.644;13.782;2023-12-29T05:49:32;76.00;;;44.10;;
79149;SDS011;68563;45.644;13.782;2023-12-29T05:52:02;79.57;;;45.53;;
79149;SDS011;68563;45.644;13.782;2023-12-29T05:54:28;71.93;;;42.92;;
79149;SDS011;68563;45.644;13.782;2023-12-29T05:56:54;73.78;;;41.30;;
79149;SDS011;68563;45.644;13.782;2023-12-29T05:59:19;77.68;;;44.10;;
79149;SDS011;68563;45.644;13.782;2023-12-29T06:01:45;77.43;;;43.28;;
79149;SDS011;68563;45.644;13.782;2023-12-29T06:04:10;72.65;;;40.20;;
79149;SDS011;68563;45.644;13.782;2023-12-29T06:06:35;80.55;;;43.65;;
79149;SDS011;68563;45.644;13.782;2023-12-29T06:09:01;79.03;;;44.50;;
79149;SDS011;68563;45.644;13.782;2023-12-29T06:11:26;73.30;;;44.13;;
79149;SDS011;68563;45.644;13.782;2023-12-29T06:13:51;78.63;;;45.38;;
79149;SDS011;68563;45.644;13.782;2023-12-29T06:16:18;78.72;;;44.28;;
79149;SDS011;68563;45.644;13.782;2023-12-29T06:18:46;76.50;;;43.80;;
79149;SDS011;68563;45.644;13.782;2023-12-29T06:21:12;88.00;;;45.80;;
79149;SDS011;68563;45.644;13.782;2023-12-29T06:23:38;78.50;;;44.45;;
79149;SDS011;68563;45.644;13.782;2023-12-29T06:26:03;79.53;;;45.60;;
79149;SDS011;68563;45.644;13.782;2023-12-29T06:28:29;76.50;;;43.05;;
79149;SDS011;68563;45.644;13.782;2023-12-29T06:30:54;75.78;;;42.45;;
79149;SDS011;68563;45.644;13.782;2023-12-29T06:33:20;78.90;;;42.40;;
79149;SDS011;68563;45.644;13.782;2023-12-29T06:35:48;73.75;;;40.47;;
79149;SDS011;68563;45.644;13.782;2023-12-29T06:38:13;73.35;;;42.05;;
79149;SDS011;68563;45.644;13.782;2023-12-29T06:40:39;74.82;;;41.40;;
79149;SDS011;68563;45.644;13.782;2023-12-29T06:43:05;72.78;;;40.78;;
79149;SDS011;68563;45.644;13.782;2023-12-29T06:45:30;68.22;;;37.03;;
79149;SDS011;68563;45.644;13.782;2023-12-29T06:47:56;68.75;;;40.67;;
79149;SDS011;68563;45.644;13.782;2023-12-29T06:50:22;67.80;;;39.80;;
79149;SDS011;68563;45.644;13.782;2023-12-29T06:52:48;69.95;;;37.47;;
79149;SDS011;68563;45.644;13.782;2023-12-29T06:55:13;68.43;;;38.72;;
79149;SDS011;68563;45.644;13.782;2023-12-29T06:57:39;68.38;;;38.72;;
79149;SDS011;68563;45.644;13.782;2023-12-29T07:00:05;62.28;;;35.00;;
79149;SDS011;68563;45.644;13.782;2023-12-29T07:02:31;62.20;;;36.38;;
79149;SDS011;68563;45.644;13.782;2023-12-29T07:04:57;57.30;;;32.85;;
79149;SDS011;68563;45.644;13.782;2023-12-29T07:07:24;62.58;;;36.65;;
79149;SDS011;68563;45.644;13.782;2023-12-29T07:09:49;63.13;;;35.47;;
79149;SDS011;68563;45.644;13.782;2023-12-29T07:12:14;65.47;;;36.65;;
79149;SDS011;68563;45.644;13.782;2023-12-29T07:14:41;60.67;;;34.10;;
79149;SDS011;68563;45.644;13.782;2023-12-29T07:17:06;60.30;;;34.58;;
79149;SDS011;68563;45.644;13.782;2023-12-29T07:19:32;55.33;;;33.83;;
79149;SDS011;68563;45.644;13.782;2023-12-29T07:22:02;56.03;;;32.20;;
79149;SDS011;68563;45.644;13.782;2023-12-29T07:24:34;56.35;;;31.38;;
79149;SDS011;68563;45.644;13.782;2023-12-29T07:27:00;51.05;;;30.73;;
79149;SDS011;68563;45.644;13.782;2023-12-29T07:29:27;48.90;;;28.75;;
79149;SDS011;68563;45.644;13.782;2023-12-29T07:31:52;54.10;;;30.52;;
79149;SDS011;68563;45.644;13.782;2023-12-29T07:34:18;47.65;;;28.00;;
79149;SDS011;68563;45.644;13.782;2023-12-29T07:36:45;47.45;;;28.40;;
79149;SDS011;68563;45.644;13.782;2023-12-29T07:39:10;48.10;;;27.38;;
79149;SDS011;68563;45.644;13.782;2023-12-29T07:41:39;45.53;;;28.25;;
79149;SDS011;68563;45.644;13.782;2023-12-29T07:46:31;41.97;;;26.17;;
79149;SDS011;68563;45.644;13.782;2023-12-29T07:48:57;45.47;;;27.15;;
79149;SDS011;68563;45.644;13.782;2023-12-29T07:51:22;45.63;;;27.80;;
79149;SDS011;68563;45.644;13.782;2023-12-29T07:53:48;41.38;;;24.48;;
79149;SDS011;68563;45.644;13.782;2023-12-29T07:56:14;43.08;;;25.83;;
79149;SDS011;68563;45.644;13.782;2023-12-29T07:58:39;39.92;;;24.35;;
79149;SDS011;68563;45.644;13.782;2023-12-29T08:01:05;46.33;;;25.83;;
79149;SDS011;68563;45.644;13.782;2023-12-29T08:03:31;42.28;;;24.63;;
79149;SDS011;68563;45.644;13.782;2023-12-29T08:05:57;39.45;;;22.90;;
79149;SDS011;68563;45.644;13.782;2023-12-29T08:08:22;37.08;;;23.77;;
79149;SDS011;68563;45.644;13.782;2023-12-29T08:10:47;39.75;;;24.17;;
79149;SDS011;68563;45.644;13.782;2023-12-29T08:13:13;40.97;;;23.23;;
79149;SDS011;68563;45.644;13.782;2023-12-29T08:15:38;35.35;;;22.38;;
79149;SDS011;68563;45.644;13.782;2023-12-29T08:18:04;38.83;;;23.23;;
79149;SDS011;68563;45.644;13.782;2023-12-29T08:20:30;39.95;;;22.70;;
79149;SDS011;68563;45.644;13.782;2023-12-29T08:22:55;42.17;;;23.42;;
79149;SDS011;68563;45.644;13.782;2023-12-29T08:25:22;40.45;;;22.55;;
79149;SDS011;68563;45.644;13.782;2023-12-29T08:27:47;33.83;;;21.17;;
79149;SDS011;68563;45.644;13.782;2023-12-29T08:30:13;41.20;;;22.55;;
79149;SDS011;68563;45.644;13.782;2023-12-29T08:32:38;38.38;;;22.38;;
79149;SDS011;68563;45.644;13.782;2023-12-29T08:35:04;40.88;;;24.00;;
79149;SDS011;68563;45.644;13.782;2023-12-29T08:37:31;41.53;;;24.80;;
79149;SDS011;68563;45.644;13.782;2023-12-29T08:39:58;36.53;;;23.75;;
79149;SDS011;68563;45.644;13.782;2023-12-29T08:42:24;37.95;;;24.13;;
79149;SDS011;68563;45.644;13.782;2023-12-29T08:44:49;44.05;;;25.90;;
79149;SDS011;68563;45.644;13.782;2023-12-29T08:47:15;44.17;;;27.02;;
79149;SDS011;68563;45.644;13.782;2023-12-29T08:49:40;43.22;;;26.83;;
79149;SDS011;68563;45.644;13.782;2023-12-29T08:52:08;44.92;;;26.40;;
79149;SDS011;68563;45.644;13.782;2023-12-29T08:54:36;42.45;;;27.13;;
79149;SDS011;68563;45.644;13.782;2023-12-29T08:57:02;43.38;;;26.05;;
79149;SDS011;68563;45.644;13.782;2023-12-29T08:59:28;49.78;;;27.55;;
79149;SDS011;68563;45.644;13.782;2023-12-29T09:01:54;61.28;;;27.00;;
79149;SDS011;68563;45.644;13.782;2023-12-29T09:04:19;46.80;;;27.05;;
79149;SDS011;68563;45.644;13.782;2023-12-29T09:06:45;46.95;;;26.75;;
79149;SDS011;68563;45.644;13.782;2023-12-29T09:09:10;46.10;;;27.65;;
79149;SDS011;68563;45.644;13.782;2023-12-29T09:11:38;49.88;;;28.92;;
79149;SDS011;68563;45.644;13.782;2023-12-29T09:14:04;45.78;;;28.50;;
79149;SDS011;68563;45.644;13.782;2023-12-29T09:16:29;46.92;;;29.27;;
79149;SDS011;68563;45.644;13.782;2023-12-29T09:18:55;47.10;;;28.48;;
79149;SDS011;68563;45.644;13.782;2023-12-29T09:21:20;42.97;;;26.17;;
79149;SDS011;68563;45.644;13.782;2023-12-29T09:23:46;44.85;;;26.60;;
79149;SDS011;68563;45.644;13.782;2023-12-29T09:26:12;44.15;;;27.50;;
79149;SDS011;68563;45.644;13.782;2023-12-29T09:28:37;43.95;;;26.67;;
79149;SDS011;68563;45.644;13.782;2023-12-29T09:31:06;44.58;;;25.48;;
79149;SDS011;68563;45.644;13.782;2023-12-29T09:33:31;43.85;;;27.08;;
79149;SDS011;68563;45.644;13.782;2023-12-29T09:35:57;46.35;;;27.17;;
79149;SDS011;68563;45.644;13.782;2023-12-29T09:38:22;44.85;;;26.48;;
79149;SDS011;68563;45.644;13.782;2023-12-29T09:40:48;48.55;;;27.58;;
79149;SDS011;68563;45.644;13.782;2023-12-29T09:43:14;46.85;;;27.30;;
79149;SDS011;68563;45.644;13.782;2023-12-29T09:45:39;47.22;;;27.42;;
79149;SDS011;68563;45.644;13.782;2023-12-29T09:50:37;44.15;;;26.90;;
79149;SDS011;68563;45.644;13.782;2023-12-29T09:53:03;44.95;;;25.75;;
79149;SDS011;68563;45.644;13.782;2023-12-29T09:55:29;45.42;;;27.05;;
79149;SDS011;68563;45.644;13.782;2023-12-29T09:57:57;46.28;;;27.45;;
79149;SDS011;68563;45.644;13.782;2023-12-29T10:00:24;40.35;;;25.08;;
79149;SDS011;68563;45.644;13.782;2023-12-29T10:02:51;49.00;;;26.63;;
79149;SDS011;68563;45.644;13.782;2023-12-29T10:05:19;43.03;;;25.80;;
79149;SDS011;68563;45.644;13.782;2023-12-29T10:07:44;42.28;;;25.88;;
79149;SDS011;68563;45.644;13.782;2023-12-29T10:10:15;43.75;;;25.77;;
79149;SDS011;68563;45.644;13.782;2023-12-29T10:24:17;43.90;;;24.58;;
79149;SDS011;68563;45.644;13.782;2023-12-29T10:26:44;41.08;;;24.17;;
79149;SDS011;68563;45.644;13.782;2023-12-29T10:29:11;43.67;;;25.42;;
79149;SDS011;68563;45.644;13.782;2023-12-29T10:31:37;41.97;;;24.90;;
79149;SDS011;68563;45.644;13.782;2023-12-29T10:37:00;42.00;;;25.30;;
79149;SDS011;68563;45.644;13.782;2023-12-29T10:39:28;41.90;;;24.98;;
79149;SDS011;68563;45.644;13.782;2023-12-29T10:42:11;44.50;;;26.20;;
79149;SDS011;68563;45.644;13.782;2023-12-29T10:44:37;51.00;;;27.85;;
79149;SDS011;68563;45.644;13.782;2023-12-29T10:47:10;43.42;;;26.40;;
79149;SDS011;68563;45.644;13.782;2023-12-29T10:49:36;45.97;;;28.00;;
79149;SDS011;68563;45.644;13.782;2023-12-29T10:52:12;47.53;;;27.75;;
79149;SDS011;68563;45.644;13.782;2023-12-29T10:54:41;46.42;;;27.00;;
79149;SDS011;68563;45.644;13.782;2023-12-29T10:57:11;45.70;;;28.08;;
79149;SDS011;68563;45.644;13.782;2023-12-29T10:59:37;47.22;;;28.50;;
79149;SDS011;68563;45.644;13.782;2023-12-29T11:02:02;48.53;;;28.63;;
79149;SDS011;68563;45.644;13.782;2023-12-29T11:04:28;49.67;;;29.10;;
79149;SDS011;68563;45.644;13.782;2023-12-29T11:06:54;47.53;;;28.55;;
79149;SDS011;68563;45.644;13.782;2023-12-29T11:09:29;47.40;;;28.33;;
79149;SDS011;68563;45.644;13.782;2023-12-29T11:12:04;48.08;;;28.60;;
79149;SDS011;68563;45.644;13.782;2023-12-29T11:14:31;49.92;;;29.17;;
79149;SDS011;68563;45.644;13.782;2023-12-29T11:16:57;50.95;;;28.98;;
79149;SDS011;68563;45.644;13.782;2023-12-29T11:19:26;47.75;;;28.52;;
79149;SDS011;68563;45.644;13.782;2023-12-29T11:21:53;48.50;;;29.67;;
79149;SDS011;68563;45.644;13.782;2023-12-29T11:24:20;50.00;;;30.92;;
79149;SDS011;68563;45.644;13.782;2023-12-29T11:26:46;46.70;;;29.63;;
79149;SDS011;68563;45.644;13.782;2023-12-29T11:29:12;46.42;;;25.92;;
79149;SDS011;68563;45.644;13.782;2023-12-29T11:31:38;45.58;;;28.98;;
79149;SDS011;68563;45.644;13.782;2023-12-29T11:36:43;46.17;;;27.60;;
79149;SDS011;68563;45.644;13.782;2023-12-29T11:39:17;54.88;;;32.10;;
79149;SDS011;68563;45.644;13.782;2023-12-29T11:42:06;52.95;;;30.88;;
79149;SDS011;68563;45.644;13.782;2023-12-29T11:44:39;48.63;;;29.88;;
79149;SDS011;68563;45.644;13.782;2023-12-29T11:47:04;48.90;;;29.98;;
79149;SDS011;68563;45.644;13.782;2023-12-29T11:52:34;54.00;;;30.60;;
79149;SDS011;68563;45.644;13.782;2023-12-29T11:55:13;51.58;;;31.92;;
79149;SDS011;68563;45.644;13.782;2023-12-29T11:57:45;51.15;;;30.83;;
79149;SDS011;68563;45.644;13.782;2023-12-29T12:00:11;53.03;;;31.35;;
79149;SDS011;68563;45.644;13.782;2023-12-29T12:02:36;49.63;;;30.50;;
79149;SDS011;68563;45.644;13.782;2023-12-29T12:05:03;51.55;;;30.90;;
79149;SDS011;68563;45.644;13.782;2023-12-29T12:12:45;52.55;;;31.70;;
79149;SDS011;68563;45.644;13.782;2023-12-29T12:17:55;50.63;;;30.00;;
79149;SDS011;68563;45.644;13.782;2023-12-29T12:20:21;53.45;;;31.38;;
79149;SDS011;68563;45.644;13.782;2023-12-29T12:22:48;49.60;;;31.55;;
79149;SDS011;68563;45.644;13.782;2023-12-29T12:25:19;54.55;;;31.60;;
79149;SDS011;68563;45.644;13.782;2023-12-29T12:27:45;54.50;;;32.00;;
79149;SDS011;68563;45.644;13.782;2023-12-29T12:30:11;51.08;;;31.98;;
79149;SDS011;68563;45.644;13.782;2023-12-29T12:32:43;52.80;;;32.60;;
79149;SDS011;68563;45.644;13.782;2023-12-29T12:35:15;53.63;;;32.03;;
79149;SDS011;68563;45.644;13.782;2023-12-29T12:37:41;53.35;;;30.77;;
79149;SDS011;68563;45.644;13.782;2023-12-29T12:40:07;52.42;;;31.15;;
79149;SDS011;68563;45.644;13.782;2023-12-29T12:42:34;54.33;;;32.08;;
79149;SDS011;68563;45.644;13.782;2023-12-29T12:45:11;52.70;;;32.70;;
79149;SDS011;68563;45.644;13.782;2023-12-29T12:47:42;57.95;;;32.83;;
79149;SDS011;68563;45.644;13.782;2023-12-29T12:50:10;58.03;;;33.63;;
79149;SDS011;68563;45.644;13.782;2023-12-29T12:52:37;56.17;;;33.25;;
79149;SDS011;68563;45.644;13.782;2023-12-29T12:55:04;53.00;;;30.23;;
79149;SDS011;68563;45.644;13.782;2023-12-29T12:57:30;58.40;;;34.15;;
79149;SDS011;68563;45.644;13.782;2023-12-29T12:59:56;56.50;;;34.28;;
79149;SDS011;68563;45.644;13.782;2023-12-29T13:02:24;59.75;;;34.47;;
79149;SDS011;68563;45.644;13.782;2023-12-29T13:04:50;59.90;;;34.60;;
79149;SDS011;68563;45.644;13.782;2023-12-29T13:07:17;56.40;;;33.05;;
79149;SDS011;68563;45.644;13.782;2023-12-29T13:09:43;53.70;;;33.15;;
79149;SDS011;68563;45.644;13.782;2023-12-29T13:12:13;54.58;;;35.35;;
79149;SDS011;68563;45.644;13.782;2023-12-29T13:14:39;53.45;;;33.70;;
79149;SDS011;68563;45.644;13.782;2023-12-29T13:17:11;53.72;;;34.22;;
79149;SDS011;68563;45.644;13.782;2023-12-29T13:19:39;55.80;;;34.63;;
79149;SDS011;68563;45.644;13.782;2023-12-29T13:22:06;55.28;;;35.20;;
79149;SDS011;68563;45.644;13.782;2023-12-29T13:24:33;56.40;;;34.17;;
79149;SDS011;68563;45.644;13.782;2023-12-29T13:27:04;54.10;;;34.53;;
79149;SDS011;68563;45.644;13.782;2023-12-29T13:29:31;53.83;;;33.33;;
79149;SDS011;68563;45.644;13.782;2023-12-29T13:32:39;57.60;;;35.50;;
79149;SDS011;68563;45.644;13.782;2023-12-29T13:35:12;54.72;;;34.53;;
79149;SDS011;68563;45.644;13.782;2023-12-29T13:37:49;54.33;;;33.60;;
79149;SDS011;68563;45.644;13.782;2023-12-29T13:40:24;57.72;;;34.30;;
79149;SDS011;68563;45.644;13.782;2023-12-29T13:43:01;57.80;;;34.97;;
79149;SDS011;68563;45.644;13.782;2023-12-29T13:45:31;58.45;;;37.47;;
79149;SDS011;68563;45.644;13.782;2023-12-29T13:47:57;58.78;;;36.50;;
79149;SDS011;68563;45.644;13.782;2023-12-29T13:50:24;59.20;;;33.92;;
79149;SDS011;68563;45.644;13.782;2023-12-29T13:52:50;57.78;;;36.53;;
79149;SDS011;68563;45.644;13.782;2023-12-29T13:55:22;58.33;;;36.38;;
79149;SDS011;68563;45.644;13.782;2023-12-29T13:57:48;58.97;;;35.60;;
79149;SDS011;68563;45.644;13.782;2023-12-29T14:00:18;58.95;;;34.22;;
79149;SDS011;68563;45.644;13.782;2023-12-29T14:02:56;60.67;;;35.72;;
79149;SDS011;68563;45.644;13.782;2023-12-29T14:05:35;57.90;;;35.05;;
79149;SDS011;68563;45.644;13.782;2023-12-29T14:13:08;60.10;;;35.80;;
79149;SDS011;68563;45.644;13.782;2023-12-29T14:15:37;57.97;;;34.35;;
79149;SDS011;68563;45.644;13.782;2023-12-29T14:20:38;58.45;;;33.20;;
79149;SDS011;68563;45.644;13.782;2023-12-29T14:23:05;55.75;;;35.72;;
79149;SDS011;68563;45.644;13.782;2023-12-29T14:25:34;60.17;;;35.55;;
79149;SDS011;68563;45.644;13.782;2023-12-29T14:28:02;56.15;;;34.22;;
79149;SDS011;68563;45.644;13.782;2023-12-29T14:30:41;57.05;;;35.33;;
79149;SDS011;68563;45.644;13.782;2023-12-29T14:33:07;51.28;;;33.75;;
79149;SDS011;68563;45.644;13.782;2023-12-29T14:35:32;53.78;;;34.55;;
79149;SDS011;68563;45.644;13.782;2023-12-29T14:37:58;55.33;;;31.92;;
79149;SDS011;68563;45.644;13.782;2023-12-29T14:40:24;55.72;;;33.95;;
79149;SDS011;68563;45.644;13.782;2023-12-29T14:42:49;53.95;;;30.58;;
79149;SDS011;68563;45.644;13.782;2023-12-29T14:45:14;59.88;;;34.03;;
79149;SDS011;68563;45.644;13.782;2023-12-29T14:47:40;54.42;;;32.85;;
79149;SDS011;68563;45.644;13.782;2023-12-29T14:50:06;56.58;;;33.15;;